createdAt,value
2018-05-29T05:02:31.976Z,22.80
2018-05-29T05:05:00.683Z,23.00
2018-05-29T05:07:28.845Z,22.90
2018-05-29T05:09:56.834Z,23.00
2018-05-29T05:12:24.909Z,23.00
2018-05-29T05:14:52.977Z,23.10
2018-05-29T05:17:21.870Z,23.10
2018-05-29T05:19:49.940Z,23.30
2018-05-29T05:24:47.524Z,22.80
2018-05-29T05:27:15.583Z,23.00
2018-05-29T05:29:43.592Z,23.10
2018-05-29T05:32:11.568Z,23.20
2018-05-29T05:34:39.665Z,23.40
2018-05-29T05:37:08.745Z,23.60
2018-05-29T05:39:36.745Z,23.60
2018-05-29T05:42:06.047Z,23.40
2018-05-29T05:44:34.053Z,23.40
2018-05-29T05:47:02.082Z,23.20
2018-05-29T05:49:31.197Z,23.10
2018-05-29T05:51:59.180Z,23.10
2018-05-29T05:56:56.492Z,23.00
2018-05-29T05:59:25.628Z,23.80
2018-05-29T06:01:53.686Z,23.70
2018-05-29T06:04:21.759Z,24.20
2018-05-29T06:06:50.886Z,24.90
2018-05-29T06:09:18.853Z,24.90
2018-05-29T06:11:46.878Z,25.20
2018-05-29T06:14:14.885Z,25.30
2018-05-29T06:16:42.921Z,25.70
2018-05-29T06:19:11.002Z,25.90
2018-05-29T06:21:40.182Z,25.40
2018-05-29T06:24:08.281Z,25.40
2018-05-29T06:26:36.285Z,25.30
2018-05-29T06:29:04.274Z,25.20
2018-05-29T06:31:32.364Z,25.40
2018-05-29T06:34:00.438Z,25.60
2018-05-29T06:36:28.427Z,25.70
2018-05-29T06:38:57.297Z,25.70
2018-05-29T06:41:25.282Z,25.70
2018-05-29T06:43:54.153Z,26.30
2018-05-29T06:46:22.134Z,26.20
2018-05-29T06:48:50.869Z,26.60
2018-05-29T06:51:18.941Z,26.60
2018-05-29T06:53:46.889Z,26.80
2018-05-29T06:56:14.930Z,27.00
2018-05-29T06:58:43.705Z,27.10
2018-05-29T07:01:11.705Z,27.10
2018-05-29T07:03:39.705Z,27.30
2018-05-29T07:06:08.876Z,27.50
2018-05-29T07:08:36.859Z,27.60
2018-05-29T07:11:04.863Z,27.90
2018-05-29T07:13:32.922Z,27.80
2018-05-29T07:16:00.938Z,27.80
2018-05-29T07:18:29.806Z,27.80
2018-05-29T07:20:57.849Z,27.80
2018-05-29T07:23:25.842Z,27.80
2018-05-29T07:25:54.719Z,28.40
2018-05-29T07:28:22.732Z,28.40
2018-05-29T07:30:50.705Z,28.70
2018-05-29T07:33:19.683Z,28.80
2018-05-29T07:35:47.701Z,28.70
2018-05-29T07:38:15.777Z,28.60
2018-05-29T07:40:43.849Z,29.10
2018-05-29T07:43:13.706Z,29.40
2018-05-29T07:45:41.686Z,29.50
2018-05-29T07:48:09.672Z,29.60
2018-05-29T07:50:37.766Z,29.40
2018-05-29T07:53:05.840Z,29.40
2018-05-29T07:55:33.879Z,29.40
2018-05-29T07:58:01.841Z,29.30
2018-05-29T08:00:29.912Z,29.30
2018-05-29T08:02:58.083Z,29.60
2018-05-29T08:05:26.074Z,29.50
2018-05-29T08:07:54.167Z,29.50
2018-05-29T08:10:22.230Z,30.00
2018-05-29T08:12:50.288Z,30.40
2018-05-29T08:15:18.262Z,31.00
2018-05-29T08:17:46.234Z,30.90
2018-05-29T08:20:14.229Z,31.10
2018-05-29T08:22:42.262Z,31.60
2018-05-29T08:25:11.154Z,31.90
2018-05-29T08:27:39.130Z,31.60
2018-05-29T08:30:07.125Z,31.50
2018-05-29T08:32:35.156Z,31.80
2018-05-29T08:35:04.641Z,31.70
2018-05-29T08:37:32.607Z,31.70
2018-05-29T08:40:00.617Z,31.60
2018-05-29T08:42:28.570Z,31.50
2018-05-29T08:44:58.065Z,31.50
2018-05-29T08:47:26.021Z,31.50
2018-05-29T08:49:54.011Z,31.50
2018-05-29T08:52:22.016Z,31.60
2018-05-29T08:54:50.050Z,31.50
2018-05-29T08:57:18.131Z,32.20
2018-05-29T08:59:46.195Z,32.00
2018-05-29T09:02:14.938Z,32.00
2018-05-29T09:04:43.031Z,31.90
2018-05-29T09:07:11.011Z,32.30
2018-05-29T09:09:39.071Z,32.20
2018-05-29T09:12:07.062Z,32.80
2018-05-29T09:14:35.838Z,31.90
2018-05-29T09:17:03.843Z,31.90
2018-05-29T09:19:31.985Z,32.10
2018-05-29T09:22:00.745Z,31.90
2018-05-29T09:24:29.798Z,31.90
2018-05-29T09:26:57.921Z,32.40
2018-05-29T09:29:25.885Z,32.50
2018-05-29T09:31:53.943Z,32.20
2018-05-29T09:34:22.748Z,32.20
2018-05-29T09:36:50.822Z,32.20
2018-05-29T09:39:19.586Z,32.10
2018-05-29T09:41:47.558Z,32.10
2018-05-29T09:44:15.544Z,32.60
2018-05-29T09:46:44.285Z,32.50
2018-05-29T09:49:12.401Z,32.40
2018-05-29T09:51:40.366Z,32.50
2018-05-29T09:54:09.098Z,32.80
2018-05-29T09:56:37.109Z,32.70
2018-05-29T09:59:05.079Z,32.60
2018-05-29T10:01:33.138Z,32.90
2018-05-29T10:04:01.237Z,32.90
2018-05-29T10:06:29.979Z,33.00
2018-05-29T10:08:57.994Z,32.90
2018-05-29T10:11:26.726Z,33.20
2018-05-29T10:13:54.825Z,33.20
2018-05-29T10:16:22.813Z,33.00
2018-05-29T10:18:51.577Z,32.90
2018-05-29T10:21:19.642Z,32.90
2018-05-29T10:23:47.721Z,32.90
2018-05-29T10:26:15.701Z,33.30
2018-05-29T10:28:44.461Z,33.40
2018-05-29T10:31:12.546Z,33.30
2018-05-29T10:33:41.348Z,33.40
2018-05-29T10:36:10.091Z,34.00
2018-05-29T10:38:38.099Z,33.90
2018-05-29T10:41:07.578Z,33.60
2018-05-29T10:43:35.638Z,33.50
2018-05-29T10:46:03.646Z,33.90
2018-05-29T10:48:32.422Z,34.10
2018-05-29T10:51:00.370Z,34.10
2018-05-29T10:53:28.433Z,34.30
2018-05-29T10:55:56.401Z,34.20
2018-05-29T10:58:24.442Z,34.00
2018-05-29T11:00:52.460Z,33.20
2018-05-29T11:03:20.420Z,32.90
2018-05-29T11:05:48.489Z,33.10
2018-05-29T11:08:16.469Z,33.30
2018-05-29T11:10:45.205Z,34.00
2018-05-29T11:13:13.950Z,34.00
2018-05-29T11:15:42.691Z,34.20
2018-05-29T11:18:10.807Z,34.20
2018-05-29T11:20:39.553Z,34.20
2018-05-29T11:23:07.630Z,34.10
2018-05-29T11:25:35.727Z,34.30
2018-05-29T11:28:03.763Z,34.40
2018-05-29T11:30:31.742Z,34.50
2018-05-29T11:32:59.820Z,34.70
2018-05-29T11:35:28.592Z,34.20
2018-05-29T11:37:58.194Z,33.50
2018-05-29T11:40:26.161Z,33.50
2018-05-29T11:42:54.138Z,33.20
2018-05-29T11:45:22.218Z,33.70
2018-05-29T11:47:50.273Z,34.00
2018-05-29T11:50:18.250Z,34.40
2018-05-29T11:52:46.303Z,34.80
2018-05-29T11:55:14.943Z,35.00
2018-05-29T11:57:42.932Z,34.90
2018-05-29T12:00:10.918Z,34.90
2018-05-29T12:02:38.929Z,34.80
2018-05-29T12:05:06.983Z,34.90
2018-05-29T12:07:34.956Z,34.90
2018-05-29T12:10:03.001Z,34.50
2018-05-29T12:12:30.982Z,33.90
2018-05-29T12:14:59.731Z,33.60
2018-05-29T12:17:27.824Z,33.60
2018-05-29T12:19:55.793Z,33.00
2018-05-29T12:22:24.060Z,33.00
2018-05-29T12:24:52.034Z,33.00
2018-05-29T12:27:20.009Z,32.90
2018-05-29T12:29:48.805Z,33.10
2018-05-29T12:32:17.570Z,33.50
2018-05-29T12:34:46.298Z,33.50
2018-05-29T12:37:14.353Z,33.70
2018-05-29T12:39:43.134Z,34.20
2018-05-29T12:42:11.877Z,34.20
2018-05-29T12:44:39.958Z,34.10
2018-05-29T12:47:08.096Z,34.50
2018-05-29T12:49:36.083Z,34.80
2018-05-29T12:52:04.069Z,34.80
2018-05-29T12:54:32.064Z,34.30
2018-05-29T12:57:00.826Z,33.50
2018-05-29T12:59:28.894Z,33.50
2018-05-29T13:01:56.963Z,33.10
2018-05-29T13:04:26.582Z,33.50
2018-05-29T13:06:54.636Z,33.50
2018-05-29T13:09:22.717Z,34.40
2018-05-29T13:11:51.468Z,35.30
2018-05-29T13:14:19.466Z,35.30
2018-05-29T13:16:47.532Z,35.30
2018-05-29T13:19:15.596Z,34.40
2018-05-29T13:21:43.594Z,34.20
2018-05-29T13:24:12.469Z,33.70
2018-05-29T13:26:41.243Z,33.70
2018-05-29T13:29:09.229Z,33.70
2018-05-29T13:31:37.408Z,33.50
2018-05-29T13:34:06.209Z,33.30
2018-05-29T13:36:34.180Z,33.20
2018-05-29T13:39:02.193Z,33.30
2018-05-29T13:41:30.173Z,33.50
2018-05-29T13:43:58.141Z,33.50
2018-05-29T13:46:26.214Z,33.50
2018-05-29T13:48:54.383Z,33.50
2018-05-29T13:51:22.453Z,33.30
2018-05-29T13:53:50.544Z,33.30
2018-05-29T13:56:19.307Z,33.00
2018-05-29T13:58:47.290Z,33.00
2018-05-29T14:01:15.558Z,33.00
2018-05-29T14:03:43.537Z,32.40
2018-05-29T14:06:12.294Z,31.40
2018-05-29T14:08:40.313Z,31.40
2018-05-29T14:11:09.054Z,30.50
